sensor_id;sensor_type;location;lat;lon;timestamp;temperature;humidity
42261;DHT22;27926;48.062;7.474;2022-09-27T00:00:35;11.10;99.90
42261;DHT22;27926;48.062;7.474;2022-09-27T00:03:00;11.10;99.90
42261;DHT22;27926;48.062;7.474;2022-09-27T00:05:26;11.10;99.90
42261;DHT22;27926;48.062;7.474;2022-09-27T00:07:50;11.10;99.90
42261;DHT22;27926;48.062;7.474;2022-09-27T00:10:15;11.10;99.90
42261;DHT22;27926;48.062;7.474;2022-09-27T00:12:41;11.10;99.90
42261;DHT22;27926;48.062;7.474;2022-09-27T00:15:08;11.10;99.90
42261;DHT22;27926;48.062;7.474;2022-09-27T00:17:33;11.20;99.90
42261;DHT22;27926;48.062;7.474;2022-09-27T00:19:59;11.10;99.90
42261;DHT22;27926;48.062;7.474;2022-09-27T00:22:24;11.20;99.90
42261;DHT22;27926;48.062;7.474;2022-09-27T00:24:50;11.10;99.90
42261;DHT22;27926;48.062;7.474;2022-09-27T00:27:15;11.20;99.90
42261;DHT22;27926;48.062;7.474;2022-09-27T00:29:39;11.30;99.90
42261;DHT22;27926;48.062;7.474;2022-09-27T00:32:04;11.30;99.90
42261;DHT22;27926;48.062;7.474;2022-09-27T00:34:29;11.30;99.90
42261;DHT22;27926;48.062;7.474;2022-09-27T00:36:53;11.30;99.90
42261;DHT22;27926;48.062;7.474;2022-09-27T00:39:19;11.30;99.90
42261;DHT22;27926;48.062;7.474;2022-09-27T00:41:43;11.30;99.90
42261;DHT22;27926;48.062;7.474;2022-09-27T00:49:40;11.30;99.90
42261;DHT22;27926;48.062;7.474;2022-09-27T00:52:19;11.30;99.90
42261;DHT22;27926;48.062;7.474;2022-09-27T00:54:49;11.20;99.90
42261;DHT22;27926;48.062;7.474;2022-09-27T00:57:15;11.20;99.90
42261;DHT22;27926;48.062;7.474;2022-09-27T00:59:47;11.20;99.90
42261;DHT22;27926;48.062;7.474;2022-09-27T01:02:13;11.20;99.90
42261;DHT22;27926;48.062;7.474;2022-09-27T01:04:39;10.50;99.90
42261;DHT22;27926;48.062;7.474;2022-09-27T01:07:06;11.20;99.90
42261;DHT22;27926;48.062;7.474;2022-09-27T01:09:31;11.20;99.90
42261;DHT22;27926;48.062;7.474;2022-09-27T01:28:21;11.20;99.90
42261;DHT22;27926;48.062;7.474;2022-09-27T01:31:07;11.30;99.90
42261;DHT22;27926;48.062;7.474;2022-09-27T01:33:45;11.30;99.90
42261;DHT22;27926;48.062;7.474;2022-09-27T01:42:30;11.10;99.90
42261;DHT22;27926;48.062;7.474;2022-09-27T01:45:02;11.10;99.90
42261;DHT22;27926;48.062;7.474;2022-09-27T01:47:36;11.10;99.90
42261;DHT22;27926;48.062;7.474;2022-09-27T01:50:39;11.10;99.90
42261;DHT22;27926;48.062;7.474;2022-09-27T01:53:04;11.10;99.90
42261;DHT22;27926;48.062;7.474;2022-09-27T01:55:34;11.10;99.90
42261;DHT22;27926;48.062;7.474;2022-09-27T01:58:13;11.10;99.90
42261;DHT22;27926;48.062;7.474;2022-09-27T02:00:41;11.10;99.90
42261;DHT22;27926;48.062;7.474;2022-09-27T02:03:12;11.10;99.90
42261;DHT22;27926;48.062;7.474;2022-09-27T02:05:54;11.10;99.90
42261;DHT22;27926;48.062;7.474;2022-09-27T02:08:41;11.10;99.90
42261;DHT22;27926;48.062;7.474;2022-09-27T02:11:12;11.10;99.90
42261;DHT22;27926;48.062;7.474;2022-09-27T02:13:57;11.10;99.90
42261;DHT22;27926;48.062;7.474;2022-09-27T02:16:50;11.00;99.90
42261;DHT22;27926;48.062;7.474;2022-09-27T02:22:14;10.90;99.90
42261;DHT22;27926;48.062;7.474;2022-09-27T02:24:45;10.90;99.90
42261;DHT22;27926;48.062;7.474;2022-09-27T02:27:16;10.90;99.90
42261;DHT22;27926;48.062;7.474;2022-09-27T02:29:54;10.90;99.90
42261;DHT22;27926;48.062;7.474;2022-09-27T02:32:21;10.90;99.90
42261;DHT22;27926;48.062;7.474;2022-09-27T02:34:47;10.90;99.90
42261;DHT22;27926;48.062;7.474;2022-09-27T02:37:13;10.90;99.90
42261;DHT22;27926;48.062;7.474;2022-09-27T02:39:38;10.90;99.90
42261;DHT22;27926;48.062;7.474;2022-09-27T02:42:04;10.90;99.90
42261;DHT22;27926;48.062;7.474;2022-09-27T02:44:29;10.80;99.90
42261;DHT22;27926;48.062;7.474;2022-09-27T02:47:48;10.80;99.90
42261;DHT22;27926;48.062;7.474;2022-09-27T03:01:06;10.70;99.90
42261;DHT22;27926;48.062;7.474;2022-09-27T03:06:21;10.60;99.90
42261;DHT22;27926;48.062;7.474;2022-09-27T03:08:47;10.70;99.90
42261;DHT22;27926;48.062;7.474;2022-09-27T03:11:11;10.60;99.90
42261;DHT22;27926;48.062;7.474;2022-09-27T03:13:36;10.60;99.90
42261;DHT22;27926;48.062;7.474;2022-09-27T03:16:02;10.60;99.90
42261;DHT22;27926;48.062;7.474;2022-09-27T03:18:26;10.60;99.90
42261;DHT22;27926;48.062;7.474;2022-09-27T03:20:52;10.60;99.90
42261;DHT22;27926;48.062;7.474;2022-09-27T03:23:17;10.60;99.90
42261;DHT22;27926;48.062;7.474;2022-09-27T03:25:42;10.60;99.90
42261;DHT22;27926;48.062;7.474;2022-09-27T03:28:06;10.60;99.90
42261;DHT22;27926;48.062;7.474;2022-09-27T03:30:31;10.60;99.90
42261;DHT22;27926;48.062;7.474;2022-09-27T03:32:56;10.60;99.90
42261;DHT22;27926;48.062;7.474;2022-09-27T03:35:20;10.60;99.90
42261;DHT22;27926;48.062;7.474;2022-09-27T03:37:45;10.60;99.90
42261;DHT22;27926;48.062;7.474;2022-09-27T03:40:10;10.60;99.90
42261;DHT22;27926;48.062;7.474;2022-09-27T03:42:35;10.60;99.90
42261;DHT22;27926;48.062;7.474;2022-09-27T03:45:01;10.70;99.90
42261;DHT22;27926;48.062;7.474;2022-09-27T03:47:25;10.70;99.90
42261;DHT22;27926;48.062;7.474;2022-09-27T03:49:50;10.70;99.90
42261;DHT22;27926;48.062;7.474;2022-09-27T03:52:15;10.70;99.90
42261;DHT22;27926;48.062;7.474;2022-09-27T03:54:41;10.70;99.90
42261;DHT22;27926;48.062;7.474;2022-09-27T03:57:06;10.60;99.90
42261;DHT22;27926;48.062;7.474;2022-09-27T03:59:31;10.70;99.90
42261;DHT22;27926;48.062;7.474;2022-09-27T04:01:55;10.70;99.90
42261;DHT22;27926;48.062;7.474;2022-09-27T04:04:20;10.60;99.90
42261;DHT22;27926;48.062;7.474;2022-09-27T04:06:45;10.60;99.90
42261;DHT22;27926;48.062;7.474;2022-09-27T04:09:09;10.70;99.90
42261;DHT22;27926;48.062;7.474;2022-09-27T04:11:34;10.60;99.90
42261;DHT22;27926;48.062;7.474;2022-09-27T04:13:59;10.60;99.90
42261;DHT22;27926;48.062;7.474;2022-09-27T04:16:23;10.60;99.90
42261;DHT22;27926;48.062;7.474;2022-09-27T04:18:48;10.50;99.90
42261;DHT22;27926;48.062;7.474;2022-09-27T04:21:13;10.40;99.90
42261;DHT22;27926;48.062;7.474;2022-09-27T04:23:38;10.40;99.90
42261;DHT22;27926;48.062;7.474;2022-09-27T04:26:06;10.30;99.90
42261;DHT22;27926;48.062;7.474;2022-09-27T04:28:34;10.30;99.90
42261;DHT22;27926;48.062;7.474;2022-09-27T04:30:59;10.30;99.90
42261;DHT22;27926;48.062;7.474;2022-09-27T04:33:23;10.20;99.90
42261;DHT22;27926;48.062;7.474;2022-09-27T04:35:48;10.20;99.90
42261;DHT22;27926;48.062;7.474;2022-09-27T04:38:32;10.10;99.90
42261;DHT22;27926;48.062;7.474;2022-09-27T04:40:56;10.00;99.90
42261;DHT22;27926;48.062;7.474;2022-09-27T04:43:21;10.00;99.90
42261;DHT22;27926;48.062;7.474;2022-09-27T04:45:46;10.00;99.90
42261;DHT22;27926;48.062;7.474;2022-09-27T04:48:11;10.00;99.90
42261;DHT22;27926;48.062;7.474;2022-09-27T04:50:35;10.00;99.90
42261;DHT22;27926;48.062;7.474;2022-09-27T04:53:01;9.90;99.90
42261;DHT22;27926;48.062;7.474;2022-09-27T04:55:26;9.90;99.90
42261;DHT22;27926;48.062;7.474;2022-09-27T04:57:51;9.90;99.90
42261;DHT22;27926;48.062;7.474;2022-09-27T05:00:16;9.90;99.90
42261;DHT22;27926;48.062;7.474;2022-09-27T05:02:44;9.80;99.90
42261;DHT22;27926;48.062;7.474;2022-09-27T05:05:09;9.80;99.90
42261;DHT22;27926;48.062;7.474;2022-09-27T05:07:34;9.80;99.90
42261;DHT22;27926;48.062;7.474;2022-09-27T05:09:59;9.80;99.90
42261;DHT22;27926;48.062;7.474;2022-09-27T05:12:23;9.80;99.90
42261;DHT22;27926;48.062;7.474;2022-09-27T05:14:50;9.80;99.90
42261;DHT22;27926;48.062;7.474;2022-09-27T05:17:14;9.80;99.90
42261;DHT22;27926;48.062;7.474;2022-09-27T05:19:39;9.80;99.90
42261;DHT22;27926;48.062;7.474;2022-09-27T05:22:05;9.80;99.90
42261;DHT22;27926;48.062;7.474;2022-09-27T05:24:30;9.80;99.90
42261;DHT22;27926;48.062;7.474;2022-09-27T05:26:56;9.90;99.90
42261;DHT22;27926;48.062;7.474;2022-09-27T05:29:20;9.90;99.90
42261;DHT22;27926;48.062;7.474;2022-09-27T05:31:45;9.90;99.90
42261;DHT22;27926;48.062;7.474;2022-09-27T05:34:10;9.90;99.90
42261;DHT22;27926;48.062;7.474;2022-09-27T05:36:36;9.90;99.90
42261;DHT22;27926;48.062;7.474;2022-09-27T05:39:01;9.90;99.90
42261;DHT22;27926;48.062;7.474;2022-09-27T05:41:26;9.80;99.90
42261;DHT22;27926;48.062;7.474;2022-09-27T05:43:51;9.90;99.90
42261;DHT22;27926;48.062;7.474;2022-09-27T05:46:15;9.90;99.90
42261;DHT22;27926;48.062;7.474;2022-09-27T05:48:40;9.90;99.90
42261;DHT22;27926;48.062;7.474;2022-09-27T05:51:05;9.90;99.90
42261;DHT22;27926;48.062;7.474;2022-09-27T05:53:29;10.00;99.90
42261;DHT22;27926;48.062;7.474;2022-09-27T05:55:59;10.00;99.90
42261;DHT22;27926;48.062;7.474;2022-09-27T05:58:24;9.90;99.90
42261;DHT22;27926;48.062;7.474;2022-09-27T06:00:48;10.00;99.90
42261;DHT22;27926;48.062;7.474;2022-09-27T06:03:13;10.00;99.90
42261;DHT22;27926;48.062;7.474;2022-09-27T06:05:39;10.00;99.90
42261;DHT22;27926;48.062;7.474;2022-09-27T06:08:09;9.90;99.90
42261;DHT22;27926;48.062;7.474;2022-09-27T06:10:34;10.00;99.90
42261;DHT22;27926;48.062;7.474;2022-09-27T06:13:19;9.90;99.90
42261;DHT22;27926;48.062;7.474;2022-09-27T06:15:44;9.80;99.90
42261;DHT22;27926;48.062;7.474;2022-09-27T06:18:12;9.80;99.90
42261;DHT22;27926;48.062;7.474;2022-09-27T06:20:39;9.80;99.90
42261;DHT22;27926;48.062;7.474;2022-09-27T06:23:17;9.80;99.90
42261;DHT22;27926;48.062;7.474;2022-09-27T06:25:43;9.80;99.90
42261;DHT22;27926;48.062;7.474;2022-09-27T06:28:08;9.80;99.90
42261;DHT22;27926;48.062;7.474;2022-09-27T06:30:43;9.90;99.90
42261;DHT22;27926;48.062;7.474;2022-09-27T06:33:13;9.90;99.90
42261;DHT22;27926;48.062;7.474;2022-09-27T06:35:38;10.00;99.90
42261;DHT22;27926;48.062;7.474;2022-09-27T06:38:04;10.20;99.90
42261;DHT22;27926;48.062;7.474;2022-09-27T06:40:30;10.30;99.90
42261;DHT22;27926;48.062;7.474;2022-09-27T06:43:01;10.40;99.90
42261;DHT22;27926;48.062;7.474;2022-09-27T06:45:26;10.50;99.90
42261;DHT22;27926;48.062;7.474;2022-09-27T06:47:51;10.50;99.90
42261;DHT22;27926;48.062;7.474;2022-09-27T06:50:16;10.70;99.90
42261;DHT22;27926;48.062;7.474;2022-09-27T06:52:47;10.90;99.90
42261;DHT22;27926;48.062;7.474;2022-09-27T06:55:12;11.10;99.90
42261;DHT22;27926;48.062;7.474;2022-09-27T06:57:37;11.20;99.90
42261;DHT22;27926;48.062;7.474;2022-09-27T07:00:21;11.30;99.90
42261;DHT22;27926;48.062;7.474;2022-09-27T07:02:50;11.30;99.90
42261;DHT22;27926;48.062;7.474;2022-09-27T07:05:15;11.30;99.90
42261;DHT22;27926;48.062;7.474;2022-09-27T07:07:40;11.30;99.90
42261;DHT22;27926;48.062;7.474;2022-09-27T07:10:06;11.40;99.90
42261;DHT22;27926;48.062;7.474;2022-09-27T07:12:30;11.40;99.90
42261;DHT22;27926;48.062;7.474;2022-09-27T07:14:55;11.60;99.90
42261;DHT22;27926;48.062;7.474;2022-09-27T07:17:20;11.60;99.90
42261;DHT22;27926;48.062;7.474;2022-09-27T07:19:44;11.50;99.90
42261;DHT22;27926;48.062;7.474;2022-09-27T07:22:09;11.40;99.90
42261;DHT22;27926;48.062;7.474;2022-09-27T07:24:34;11.30;99.90
42261;DHT22;27926;48.062;7.474;2022-09-27T07:26:58;11.30;99.90
42261;DHT22;27926;48.062;7.474;2022-09-27T07:29:23;11.30;99.90
42261;DHT22;27926;48.062;7.474;2022-09-27T07:31:47;11.30;99.90
42261;DHT22;27926;48.062;7.474;2022-09-27T07:34:12;11.30;99.90
42261;DHT22;27926;48.062;7.474;2022-09-27T07:36:37;11.30;99.90
42261;DHT22;27926;48.062;7.474;2022-09-27T07:39:02;11.30;99.90
42261;DHT22;27926;48.062;7.474;2022-09-27T07:41:26;11.50;99.90
42261;DHT22;27926;48.062;7.474;2022-09-27T07:43:51;11.60;99.90
42261;DHT22;27926;48.062;7.474;2022-09-27T07:46:16;11.70;99.90
42261;DHT22;27926;48.062;7.474;2022-09-27T07:48:41;11.80;99.90
42261;DHT22;27926;48.062;7.474;2022-09-27T07:51:06;11.90;99.90
42261;DHT22;27926;48.062;7.474;2022-09-27T07:53:34;11.90;99.90
42261;DHT22;27926;48.062;7.474;2022-09-27T07:55:58;11.80;99.90
42261;DHT22;27926;48.062;7.474;2022-09-27T07:58:23;11.90;99.90
42261;DHT22;27926;48.062;7.474;2022-09-27T08:00:47;11.80;99.90
42261;DHT22;27926;48.062;7.474;2022-09-27T08:03:14;11.80;99.90
42261;DHT22;27926;48.062;7.474;2022-09-27T08:05:39;11.90;99.90
42261;DHT22;27926;48.062;7.474;2022-09-27T08:08:04;11.80;99.90
42261;DHT22;27926;48.062;7.474;2022-09-27T08:10:30;11.70;99.90
42261;DHT22;27926;48.062;7.474;2022-09-27T08:12:56;11.60;99.90
42261;DHT22;27926;48.062;7.474;2022-09-27T08:15:24;11.60;99.90
42261;DHT22;27926;48.062;7.474;2022-09-27T08:17:49;11.60;99.90
42261;DHT22;27926;48.062;7.474;2022-09-27T08:20:14;11.60;99.90
42261;DHT22;27926;48.062;7.474;2022-09-27T08:22:42;11.60;99.90
42261;DHT22;27926;48.062;7.474;2022-09-27T08:25:08;11.60;99.90
42261;DHT22;27926;48.062;7.474;2022-09-27T08:27:33;11.60;99.90
42261;DHT22;27926;48.062;7.474;2022-09-27T08:29:58;11.50;99.90
42261;DHT22;27926;48.062;7.474;2022-09-27T08:32:23;11.50;99.90
42261;DHT22;27926;48.062;7.474;2022-09-27T08:34:48;11.60;99.90
42261;DHT22;27926;48.062;7.474;2022-09-27T08:37:12;11.70;99.90
42261;DHT22;27926;48.062;7.474;2022-09-27T08:39:37;11.70;99.90
42261;DHT22;27926;48.062;7.474;2022-09-27T08:42:27;11.80;99.90
42261;DHT22;27926;48.062;7.474;2022-09-27T08:45:31;11.80;99.90
42261;DHT22;27926;48.062;7.474;2022-09-27T08:47:59;11.80;99.90
42261;DHT22;27926;48.062;7.474;2022-09-27T08:50:40;11.70;99.90
42261;DHT22;27926;48.062;7.474;2022-09-27T08:56:21;11.60;99.90
42261;DHT22;27926;48.062;7.474;2022-09-27T08:58:48;11.60;99.90
42261;DHT22;27926;48.062;7.474;2022-09-27T09:01:16;11.70;99.90
42261;DHT22;27926;48.062;7.474;2022-09-27T09:03:52;11.80;99.90
42261;DHT22;27926;48.062;7.474;2022-09-27T09:06:45;11.80;99.90
42261;DHT22;27926;48.062;7.474;2022-09-27T09:17:58;12.20;99.90
42261;DHT22;27926;48.062;7.474;2022-09-27T09:30:39;12.80;99.90
42261;DHT22;27926;48.062;7.474;2022-09-27T09:33:15;13.00;99.90
42261;DHT22;27926;48.062;7.474;2022-09-27T09:41:06;13.70;99.90
42261;DHT22;27926;48.062;7.474;2022-09-27T09:43:40;13.80;99.90
42261;DHT22;27926;48.062;7.474;2022-09-27T09:46:17;14.10;99.90
42261;DHT22;27926;48.062;7.474;2022-09-27T09:48:50;14.40;99.90
42261;DHT22;27926;48.062;7.474;2022-09-27T09:51:21;14.60;99.90
42261;DHT22;27926;48.062;7.474;2022-09-27T09:53:55;14.80;99.90
42261;DHT22;27926;48.062;7.474;2022-09-27T09:56:32;15.00;99.90
42261;DHT22;27926;48.062;7.474;2022-09-27T09:59:25;14.80;99.90
42261;DHT22;27926;48.062;7.474;2022-09-27T10:01:52;14.60;99.90
42261;DHT22;27926;48.062;7.474;2022-09-27T10:04:26;14.50;99.90
42261;DHT22;27926;48.062;7.474;2022-09-27T10:06:52;14.50;99.90
42261;DHT22;27926;48.062;7.474;2022-09-27T10:09:23;14.60;99.90
42261;DHT22;27926;48.062;7.474;2022-09-27T10:11:49;14.60;99.90
42261;DHT22;27926;48.062;7.474;2022-09-27T10:14:16;14.60;99.90
42261;DHT22;27926;48.062;7.474;2022-09-27T10:16:43;14.60;99.90
42261;DHT22;27926;48.062;7.474;2022-09-27T10:19:11;14.70;99.90
42261;DHT22;27926;48.062;7.474;2022-09-27T10:21:40;14.80;99.90
42261;DHT22;27926;48.062;7.474;2022-09-27T10:24:16;15.00;99.90
42261;DHT22;27926;48.062;7.474;2022-09-27T10:26:43;15.30;99.90
42261;DHT22;27926;48.062;7.474;2022-09-27T10:31:48;15.40;99.90
42261;DHT22;27926;48.062;7.474;2022-09-27T10:37:02;15.10;99.90
42261;DHT22;27926;48.062;7.474;2022-09-27T10:39:27;14.70;99.90
42261;DHT22;27926;48.062;7.474;2022-09-27T10:41:52;14.40;99.90
42261;DHT22;27926;48.062;7.474;2022-09-27T10:44:25;14.00;99.90
42261;DHT22;27926;48.062;7.474;2022-09-27T10:46:55;13.70;99.90
42261;DHT22;27926;48.062;7.474;2022-09-27T10:50:01;13.40;99.90
42261;DHT22;27926;48.062;7.474;2022-09-27T10:52:20;13.00;99.90
42261;DHT22;27926;48.062;7.474;2022-09-27T10:55:24;12.90;99.90
42261;DHT22;27926;48.062;7.474;2022-09-27T10:57:52;13.00;99.90
42261;DHT22;27926;48.062;7.474;2022-09-27T11:00:35;13.10;99.90
42261;DHT22;27926;48.062;7.474;2022-09-27T11:03:03;13.30;99.90
42261;DHT22;27926;48.062;7.474;2022-09-27T11:05:36;13.70;99.90
42261;DHT22;27926;48.062;7.474;2022-09-27T11:08:32;14.10;99.90
42261;DHT22;27926;48.062;7.474;2022-09-27T11:11:02;14.40;99.90
42261;DHT22;27926;48.062;7.474;2022-09-27T11:13:27;14.60;99.90
42261;DHT22;27926;48.062;7.474;2022-09-27T11:19:06;14.70;99.90
42261;DHT22;27926;48.062;7.474;2022-09-27T11:29:55;13.70;99.90
42261;DHT22;27926;48.062;7.474;2022-09-27T11:35:47;13.00;99.90
42261;DHT22;27926;48.062;7.474;2022-09-27T11:38:32;13.00;99.90
42261;DHT22;27926;48.062;7.474;2022-09-27T11:41:09;13.10;99.90
42261;DHT22;27926;48.062;7.474;2022-09-27T11:46:23;13.30;99.90
42261;DHT22;27926;48.062;7.474;2022-09-27T11:55:13;14.00;99.90
42261;DHT22;27926;48.062;7.474;2022-09-27T11:57:49;14.20;99.90
42261;DHT22;27926;48.062;7.474;2022-09-27T12:00:22;14.30;99.90
42261;DHT22;27926;48.062;7.474;2022-09-27T12:13:51;14.90;99.90
42261;DHT22;27926;48.062;7.474;2022-09-27T12:16:18;14.90;99.90
42261;DHT22;27926;48.062;7.474;2022-09-27T12:18:43;14.90;99.90
42261;DHT22;27926;48.062;7.474;2022-09-27T12:21:10;14.90;99.90
42261;DHT22;27926;48.062;7.474;2022-09-27T12:23:44;14.90;99.90
42261;DHT22;27926;48.062;7.474;2022-09-27T12:26:25;14.90;99.90
42261;DHT22;27926;48.062;7.474;2022-09-27T12:32:04;14.50;99.90
42261;DHT22;27926;48.062;7.474;2022-09-27T12:34:57;14.20;99.90
42261;DHT22;27926;48.062;7.474;2022-09-27T12:37:29;13.90;99.90
42261;DHT22;27926;48.062;7.474;2022-09-27T12:40:02;13.60;99.90
42261;DHT22;27926;48.062;7.474;2022-09-27T12:42:38;13.20;99.90
42261;DHT22;27926;48.062;7.474;2022-09-27T12:45:04;12.90;99.90
42261;DHT22;27926;48.062;7.474;2022-09-27T12:50:41;12.80;99.90
42261;DHT22;27926;48.062;7.474;2022-09-27T12:53:16;12.80;99.90
42261;DHT22;27926;48.062;7.474;2022-09-27T13:12:18;13.30;99.90
42261;DHT22;27926;48.062;7.474;2022-09-27T13:14:56;13.30;99.90
42261;DHT22;27926;48.062;7.474;2022-09-27T13:17:52;13.30;99.90
42261;DHT22;27926;48.062;7.474;2022-09-27T13:25:54;13.20;99.90
42261;DHT22;27926;48.062;7.474;2022-09-27T13:30:52;12.90;99.90
42261;DHT22;27926;48.062;7.474;2022-09-27T13:39:13;12.90;99.90
42261;DHT22;27926;48.062;7.474;2022-09-27T13:42:06;13.00;99.90
42261;DHT22;27926;48.062;7.474;2022-09-27T13:49:51;13.20;99.90
42261;DHT22;27926;48.062;7.474;2022-09-27T13:54:57;13.40;99.90
42261;DHT22;27926;48.062;7.474;2022-09-27T13:57:58;13.50;99.90
42261;DHT22;27926;48.062;7.474;2022-09-27T14:00:33;13.60;99.90
42261;DHT22;27926;48.062;7.474;2022-09-27T14:03:03;13.60;99.90
42261;DHT22;27926;48.062;7.474;2022-09-27T14:05:58;13.60;99.90
42261;DHT22;27926;48.062;7.474;2022-09-27T14:08:32;13.80;99.90
42261;DHT22;27926;48.062;7.474;2022-09-27T14:10:59;13.80;99.90
42261;DHT22;27926;48.062;7.474;2022-09-27T14:13:26;13.90;99.90
42261;DHT22;27926;48.062;7.474;2022-09-27T14:15:51;13.90;99.90
42261;DHT22;27926;48.062;7.474;2022-09-27T14:18:17;13.80;99.90
42261;DHT22;27926;48.062;7.474;2022-09-27T14:20:44;13.80;99.90
42261;DHT22;27926;48.062;7.474;2022-09-27T14:23:18;13.70;99.90
42261;DHT22;27926;48.062;7.474;2022-09-27T14:25:46;13.70;99.90
42261;DHT22;27926;48.062;7.474;2022-09-27T14:28:27;13.70;99.90
42261;DHT22;27926;48.062;7.474;2022-09-27T14:31:09;13.60;99.90
42261;DHT22;27926;48.062;7.474;2022-09-27T14:33:37;13.60;99.90
42261;DHT22;27926;48.062;7.474;2022-09-27T14:36:02;13.60;99.90
42261;DHT22;27926;48.062;7.474;2022-09-27T14:38:48;13.50;99.90
42261;DHT22;27926;48.062;7.474;2022-09-27T14:41:13;13.60;99.90
42261;DHT22;27926;48.062;7.474;2022-09-27T14:43:42;13.60;99.90
42261;DHT22;27926;48.062;7.474;2022-09-27T14:46:26;13.60;99.90
42261;DHT22;27926;48.062;7.474;2022-09-27T14:48:51;13.60;99.90
42261;DHT22;27926;48.062;7.474;2022-09-27T14:51:20;13.60;99.90
42261;DHT22;27926;48.062;7.474;2022-09-27T14:53:51;13.80;99.90
42261;DHT22;27926;48.062;7.474;2022-09-27T14:56:28;14.00;99.90
42261;DHT22;27926;48.062;7.474;2022-09-27T14:59:02;14.20;99.90
42261;DHT22;27926;48.062;7.474;2022-09-27T15:01:29;14.30;99.90
42261;DHT22;27926;48.062;7.474;2022-09-27T15:03:55;14.50;99.90
42261;DHT22;27926;48.062;7.474;2022-09-27T15:06:20;14.50;99.90
42261;DHT22;27926;48.062;7.474;2022-09-27T15:08:46;14.40;99.90
42261;DHT22;27926;48.062;7.474;2022-09-27T15:11:12;14.20;99.90
42261;DHT22;27926;48.062;7.474;2022-09-27T15:13:37;13.90;99.90
42261;DHT22;27926;48.062;7.474;2022-09-27T15:16:12;13.70;99.90
42261;DHT22;27926;48.062;7.474;2022-09-27T15:18:45;13.50;99.90
42261;DHT22;27926;48.062;7.474;2022-09-27T15:21:13;13.40;99.90
42261;DHT22;27926;48.062;7.474;2022-09-27T15:23:43;13.30;99.90
42261;DHT22;27926;48.062;7.474;2022-09-27T15:28:34;13.30;99.90
42261;DHT22;27926;48.062;7.474;2022-09-27T15:31:01;13.30;99.90
42261;DHT22;27926;48.062;7.474;2022-09-27T15:33:27;13.30;99.90
42261;DHT22;27926;48.062;7.474;2022-09-27T15:35:59;13.30;99.90
42261;DHT22;27926;48.062;7.474;2022-09-27T15:38:28;13.40;99.90
42261;DHT22;27926;48.062;7.474;2022-09-27T15:43:27;13.40;99.90
42261;DHT22;27926;48.062;7.474;2022-09-27T15:45:53;13.40;99.90
42261;DHT22;27926;48.062;7.474;2022-09-27T15:48:19;13.30;99.90
42261;DHT22;27926;48.062;7.474;2022-09-27T15:50:44;13.30;99.90
42261;DHT22;27926;48.062;7.474;2022-09-27T15:53:10;13.20;99.90
42261;DHT22;27926;48.062;7.474;2022-09-27T15:55:41;13.20;99.90
42261;DHT22;27926;48.062;7.474;2022-09-27T15:58:12;13.20;99.90
42261;DHT22;27926;48.062;7.474;2022-09-27T16:00:53;13.10;99.90
42261;DHT22;27926;48.062;7.474;2022-09-27T16:03:18;13.10;99.90
42261;DHT22;27926;48.062;7.474;2022-09-27T16:05:43;13.10;99.90
42261;DHT22;27926;48.062;7.474;2022-09-27T16:08:09;13.20;99.90
42261;DHT22;27926;48.062;7.474;2022-09-27T16:10:45;13.30;99.90
42261;DHT22;27926;48.062;7.474;2022-09-27T16:13:11;13.20;99.90
42261;DHT22;27926;48.062;7.474;2022-09-27T16:15:36;13.20;99.90
42261;DHT22;27926;48.062;7.474;2022-09-27T16:18:01;13.10;99.90
42261;DHT22;27926;48.062;7.474;2022-09-27T16:20:26;13.10;99.90
42261;DHT22;27926;48.062;7.474;2022-09-27T16:22:53;13.00;99.90
42261;DHT22;27926;48.062;7.474;2022-09-27T16:25:19;12.90;99.90
42261;DHT22;27926;48.062;7.474;2022-09-27T16:27:44;12.80;99.90
42261;DHT22;27926;48.062;7.474;2022-09-27T16:30:09;12.80;99.90
42261;DHT22;27926;48.062;7.474;2022-09-27T16:32:42;12.70;99.90
42261;DHT22;27926;48.062;7.474;2022-09-27T16:35:08;12.70;99.90
42261;DHT22;27926;48.062;7.474;2022-09-27T16:37:33;12.60;99.90
42261;DHT22;27926;48.062;7.474;2022-09-27T16:39:58;12.50;99.90
42261;DHT22;27926;48.062;7.474;2022-09-27T16:42:23;12.40;99.90
42261;DHT22;27926;48.062;7.474;2022-09-27T16:44:47;12.30;99.90
42261;DHT22;27926;48.062;7.474;2022-09-27T16:47:13;12.30;99.90
42261;DHT22;27926;48.062;7.474;2022-09-27T16:49:38;12.20;99.90
42261;DHT22;27926;48.062;7.474;2022-09-27T16:52:21;12.20;99.90
42261;DHT22;27926;48.062;7.474;2022-09-27T16:54:46;12.20;99.90
42261;DHT22;27926;48.062;7.474;2022-09-27T16:57:10;12.20;99.90
42261;DHT22;27926;48.062;7.474;2022-09-27T16:59:35;12.20;99.90
42261;DHT22;27926;48.062;7.474;2022-09-27T17:02:00;12.10;99.90
42261;DHT22;27926;48.062;7.474;2022-09-27T17:04:26;12.20;99.90
42261;DHT22;27926;48.062;7.474;2022-09-27T17:06:51;12.10;99.90
42261;DHT22;27926;48.062;7.474;2022-09-27T17:09:15;12.10;99.90
42261;DHT22;27926;48.062;7.474;2022-09-27T17:11:40;12.10;99.90
42261;DHT22;27926;48.062;7.474;2022-09-27T17:14:05;12.10;99.90
42261;DHT22;27926;48.062;7.474;2022-09-27T17:16:29;12.00;99.90
42261;DHT22;27926;48.062;7.474;2022-09-27T17:18:54;12.00;99.90
42261;DHT22;27926;48.062;7.474;2022-09-27T17:21:19;11.90;99.90
42261;DHT22;27926;48.062;7.474;2022-09-27T17:23:44;11.90;99.90
42261;DHT22;27926;48.062;7.474;2022-09-27T17:26:18;11.90;99.90
42261;DHT22;27926;48.062;7.474;2022-09-27T17:28:44;11.90;99.90
42261;DHT22;27926;48.062;7.474;2022-09-27T17:31:10;11.80;99.90
42261;DHT22;27926;48.062;7.474;2022-09-27T17:33:44;11.80;99.90
42261;DHT22;27926;48.062;7.474;2022-09-27T17:36:11;11.80;99.90
42261;DHT22;27926;48.062;7.474;2022-09-27T17:38:37;11.70;99.90
42261;DHT22;27926;48.062;7.474;2022-09-27T17:41:07;11.70;99.90
42261;DHT22;27926;48.062;7.474;2022-09-27T17:43:34;11.70;99.90
42261;DHT22;27926;48.062;7.474;2022-09-27T17:46:06;11.60;99.90
42261;DHT22;27926;48.062;7.474;2022-09-27T17:48:31;11.60;99.90
42261;DHT22;27926;48.062;7.474;2022-09-27T17:51:14;11.60;99.90
42261;DHT22;27926;48.062;7.474;2022-09-27T17:53:39;11.60;99.90
42261;DHT22;27926;48.062;7.474;2022-09-27T17:56:04;11.60;99.90
42261;DHT22;27926;48.062;7.474;2022-09-27T17:58:28;11.50;99.90
42261;DHT22;27926;48.062;7.474;2022-09-27T18:00:54;11.50;99.90
42261;DHT22;27926;48.062;7.474;2022-09-27T18:03:19;11.50;99.90
42261;DHT22;27926;48.062;7.474;2022-09-27T18:05:44;11.50;99.90
42261;DHT22;27926;48.062;7.474;2022-09-27T18:08:08;11.50;99.90
42261;DHT22;27926;48.062;7.474;2022-09-27T18:10:33;11.40;99.90
42261;DHT22;27926;48.062;7.474;2022-09-27T18:12:58;11.40;99.90
42261;DHT22;27926;48.062;7.474;2022-09-27T18:15:23;11.40;99.90
42261;DHT22;27926;48.062;7.474;2022-09-27T18:17:49;11.30;99.90
42261;DHT22;27926;48.062;7.474;2022-09-27T18:20:14;11.30;99.90
42261;DHT22;27926;48.062;7.474;2022-09-27T18:22:39;11.20;99.90
42261;DHT22;27926;48.062;7.474;2022-09-27T18:25:04;11.20;99.90